Time,TemperatureF,DewpointF,PressureIn,WindDirection,WindDirectionDegrees,WindSpeedMPH,WindSpeedGustMPH,Humidity,HourlyPrecipIn,Conditions,Clouds,dailyrainin,SoftwareType,DateUTC
2013-01-02 00:00:00,35.8,31.7,30.83,NNW,343,10.0,14.0,85,0.00,,,0.00,Weather View 32 v70,2013-01-02 06:00:00,
2013-01-02 00:05:00,35.9,31.8,30.84,NNW,343,6.0,14.0,85,0.00,,,0.00,Weather View 32 v70,2013-01-02 06:05:00,
2013-01-02 00:10:00,35.8,31.7,30.83,NW,321,11.0,14.0,85,0.00,,,0.00,Weather View 32 v70,2013-01-02 06:10:00,
2013-01-02 00:15:00,35.8,31.7,30.83,WNW,298,9.0,14.0,85,0.00,,,0.00,Weather View 32 v70,2013-01-02 06:15:00,
2013-01-02 00:20:00,35.7,31.3,30.83,NW,321,11.0,14.0,84,0.00,,,0.00,Weather View 32 v70,2013-01-02 06:20:00,
2013-01-02 00:25:00,35.6,31.2,30.83,NNW,343,10.0,14.0,84,0.00,,,0.00,Weather View 32 v70,2013-01-02 06:25:00,
2013-01-02 00:30:00,35.6,31.5,30.83,NW,321,11.0,14.0,85,0.00,,,0.00,Weather View 32 v70,2013-01-02 06:30:00,
2013-01-02 00:35:00,35.6,31.5,30.83,NNW,343,9.0,14.0,85,0.00,,,0.00,Weather View 32 v70,2013-01-02 06:35:00,
2013-01-02 00:40:00,35.5,31.4,30.83,NNW,343,8.0,14.0,85,0.00,,,0.00,Weather View 32 v70,2013-01-02 06:40:00,
2013-01-02 00:45:00,35.6,31.5,30.83,NNW,343,8.0,14.0,85,0.00,,,0.00,Weather View 32 v70,2013-01-02 06:45:00,
2013-01-02 00:50:00,35.5,31.4,30.83,NNW,343,7.0,14.0,85,0.00,,,0.00,Weather View 32 v70,2013-01-02 06:50:00,
2013-01-02 00:55:00,35.5,31.4,30.83,NW,321,9.0,14.0,85,0.00,,,0.00,Weather View 32 v70,2013-01-02 06:55:00,
2013-01-02 01:00:00,35.5,31.4,30.82,NW,321,6.0,14.0,85,0.00,,,0.00,Weather View 32 v70,2013-01-02 07:00:00,
2013-01-02 01:05:00,35.5,31.4,30.83,WNW,298,9.0,14.0,85,0.00,,,0.00,Weather View 32 v70,2013-01-02 07:05:00,
2013-01-02 01:10:00,35.5,31.4,30.82,NNW,343,6.0,14.0,85,0.00,,,0.00,Weather View 32 v70,2013-01-02 07:10:00,
2013-01-02 01:15:00,35.5,31.4,30.83,NNW,343,6.0,14.0,85,0.00,,,0.00,Weather View 32 v70,2013-01-02 07:15:00,
2013-01-02 01:20:00,35.6,31.5,30.83,NW,321,4.0,14.0,85,0.00,,,0.00,Weather View 32 v70,2013-01-02 07:20:00,
2013-01-02 01:25:00,35.5,31.4,30.83,NW,321,6.0,14.0,85,0.00,,,0.00,Weather View 32 v70,2013-01-02 07:25:00,
2013-01-02 01:30:00,35.6,31.2,30.83,NW,321,6.0,14.0,84,0.00,,,0.00,Weather View 32 v70,2013-01-02 07:30:00,
2013-01-02 01:35:00,35.5,31.1,30.83,NW,321,9.0,14.0,84,0.00,,,0.00,Weather View 32 v70,2013-01-02 07:35:00,
2013-01-02 01:40:00,35.5,31.1,30.83,NW,321,5.0,14.0,84,0.00,,,0.00,Weather View 32 v70,2013-01-02 07:40:00,
2013-01-02 01:45:00,35.4,30.7,30.83,NW,321,10.0,13.0,83,0.00,,,0.00,Weather View 32 v70,2013-01-02 07:45:00,
2013-01-02 01:50:00,35.4,30.7,30.83,NW,321,8.0,13.0,83,0.00,,,0.00,Weather View 32 v70,2013-01-02 07:50:00,
2013-01-02 01:55:00,35.4,30.7,30.83,NW,321,8.0,13.0,83,0.00,,,0.00,Weather View 32 v70,2013-01-02 07:55:00,
2013-01-02 02:00:00,35.4,30.7,30.83,NNW,343,3.0,12.0,83,0.00,,,0.00,Weather View 32 v70,2013-01-02 08:00:00,
2013-01-02 02:05:00,35.3,30.7,30.83,NW,321,8.0,12.0,83,0.00,,,0.00,Weather View 32 v70,2013-01-02 08:05:00,
2013-01-02 02:10:00,35.2,30.6,30.83,NNW,343,8.0,12.0,83,0.00,,,0.00,Weather View 32 v70,2013-01-02 08:10:00,
2013-01-02 02:15:00,35.3,30.7,30.84,NW,321,8.0,13.0,83,0.00,,,0.00,Weather View 32 v70,2013-01-02 08:15:00,
2013-01-02 02:20:00,35.2,30.6,30.84,NW,321,6.0,13.0,83,0.00,,,0.00,Weather View 32 v70,2013-01-02 08:20:00,
2013-01-02 02:25:00,35.1,30.5,30.83,NNW,343,11.0,13.0,83,0.00,,,0.00,Weather View 32 v70,2013-01-02 08:25:00,
2013-01-02 02:30:00,35.1,30.5,30.83,NW,321,7.0,13.0,83,0.00,,,0.00,Weather View 32 v70,2013-01-02 08:30:00,
2013-01-02 02:35:00,35.2,30.6,30.84,NNW,343,6.0,13.0,83,0.00,,,0.00,Weather View 32 v70,2013-01-02 08:35:00,
2013-01-02 02:40:00,35.2,30.6,30.84,NNW,343,6.0,13.0,83,0.00,,,0.00,Weather View 32 v70,2013-01-02 08:40:00,
2013-01-02 02:45:00,35.0,30.1,30.84,NW,321,10.0,13.0,82,0.00,,,0.00,Weather View 32 v70,2013-01-02 08:45:00,
2013-01-02 02:50:00,35.0,30.1,30.84,WNW,298,7.0,13.0,82,0.00,,,0.00,Weather View 32 v70,2013-01-02 08:50:00,
2013-01-02 02:55:00,34.9,29.7,30.84,NNW,343,8.0,13.0,81,0.00,,,0.00,Weather View 32 v70,2013-01-02 08:55:00,
2013-01-02 03:00:00,35.0,30.4,30.84,NW,321,7.0,13.0,83,0.00,,,0.00,Weather View 32 v70,2013-01-02 09:00:00,
2013-01-02 03:05:00,34.9,30.3,30.84,NNW,343,7.0,13.0,83,0.00,,,0.00,Weather View 32 v70,2013-01-02 09:05:00,
2013-01-02 03:10:00,34.7,30.1,30.84,NW,321,10.0,13.0,83,0.00,,,0.00,Weather View 32 v70,2013-01-02 09:10:00,
2013-01-02 03:15:00,34.6,30.3,30.84,NW,321,11.0,14.0,84,0.00,,,0.00,Weather View 32 v70,2013-01-02 09:15:00,
2013-01-02 03:20:00,34.6,30.3,30.84,NNW,343,8.0,14.0,84,0.00,,,0.00,Weather View 32 v70,2013-01-02 09:20:00,
2013-01-02 03:25:00,34.5,30.5,30.84,NW,321,5.0,14.0,85,0.00,,,0.00,Weather View 32 v70,2013-01-02 09:25:00,
2013-01-02 03:30:00,34.2,29.9,30.84,NW,321,8.0,14.0,84,0.00,,,0.00,Weather View 32 v70,2013-01-02 09:30:00,
2013-01-02 03:35:00,34.1,29.8,30.84,NW,321,8.0,14.0,84,0.00,,,0.00,Weather View 32 v70,2013-01-02 09:35:00,
2013-01-02 03:40:00,34.1,29.8,30.84,NW,321,6.0,14.0,84,0.00,,,0.00,Weather View 32 v70,2013-01-02 09:40:00,
2013-01-02 03:45:00,34.1,30.1,30.84,NNW,343,7.0,14.0,85,0.00,,,0.00,Weather View 32 v70,2013-01-02 09:45:00,
2013-01-02 03:50:00,34.0,30.0,30.84,NNW,343,7.0,14.0,85,0.00,,,0.00,Weather View 32 v70,2013-01-02 09:50:00,
2013-01-02 03:55:00,33.9,29.9,30.84,NW,321,10.0,14.0,85,0.00,,,0.00,Weather View 32 v70,2013-01-02 09:55:00,
2013-01-02 04:00:00,33.8,29.8,30.84,NNW,343,11.0,14.0,85,0.00,,,0.00,Weather View 32 v70,2013-01-02 10:00:00,
2013-01-02 04:05:00,33.8,30.1,30.84,NW,321,8.0,14.0,86,0.00,,,0.00,Weather View 32 v70,2013-01-02 10:05:00,
2013-01-02 04:10:00,33.6,29.6,30.83,NNW,343,11.0,14.0,85,0.00,,,0.00,Weather View 32 v70,2013-01-02 10:10:00,
2013-01-02 04:15:00,33.7,29.7,30.83,NW,321,11.0,14.0,85,0.00,,,0.00,Weather View 32 v70,2013-01-02 10:15:00,
2013-01-02 04:20:00,33.6,29.9,30.83,NW,321,8.0,13.0,86,0.00,,,0.00,Weather View 32 v70,2013-01-02 10:20:00,
2013-01-02 04:25:00,33.7,30.0,30.83,NW,321,6.0,13.0,86,0.00,,,0.00,Weather View 32 v70,2013-01-02 10:25:00,
2013-01-02 04:30:00,33.5,29.8,30.84,NNW,343,10.0,13.0,86,0.00,,,0.00,Weather View 32 v70,2013-01-02 10:30:00,
2013-01-02 04:35:00,33.5,30.0,30.84,NW,321,7.0,13.0,87,0.00,,,0.00,Weather View 32 v70,2013-01-02 10:35:00,
2013-01-02 04:40:00,33.3,29.8,30.85,NW,321,8.0,13.0,87,0.00,,,0.00,Weather View 32 v70,2013-01-02 10:40:00,
2013-01-02 04:45:00,33.2,29.8,30.84,NW,321,6.0,13.0,87,0.00,,,0.00,Weather View 32 v70,2013-01-02 10:45:00,
2013-01-02 04:50:00,33.1,29.7,30.84,NW,321,5.0,13.0,87,0.00,,,0.00,Weather View 32 v70,2013-01-02 10:50:00,
2013-01-02 04:55:00,32.9,29.5,30.84,NNW,343,7.0,13.0,87,0.00,,,0.00,Weather View 32 v70,2013-01-02 10:55:00,
2013-01-02 05:00:00,32.8,29.6,30.83,NW,321,8.0,13.0,88,0.00,,,0.00,Weather View 32 v70,2013-01-02 11:00:00,
2013-01-02 05:05:00,32.7,29.5,30.84,NNW,343,7.0,13.0,88,0.00,,,0.00,Weather View 32 v70,2013-01-02 11:05:00,
2013-01-02 05:10:00,32.6,29.4,30.83,NNW,343,7.0,13.0,88,0.00,,,0.00,Weather View 32 v70,2013-01-02 11:10:00,
2013-01-02 05:15:00,32.5,29.6,30.83,NW,321,10.0,13.0,89,0.00,,,0.00,Weather View 32 v70,2013-01-02 11:15:00,
2013-01-02 05:20:00,32.4,29.5,30.83,NNW,343,9.0,13.0,89,0.00,,,0.00,Weather View 32 v70,2013-01-02 11:20:00,
2013-01-02 05:25:00,32.4,29.5,30.84,NNW,343,5.0,13.0,89,0.00,,,0.00,Weather View 32 v70,2013-01-02 11:25:00,
2013-01-02 05:30:00,32.3,29.4,30.84,NNW,343,6.0,13.0,89,0.00,,,0.00,Weather View 32 v70,2013-01-02 11:30:00,
2013-01-02 05:35:00,32.3,29.4,30.84,North,6,6.0,13.0,89,0.00,,,0.00,Weather View 32 v70,2013-01-02 11:35:00,
2013-01-02 05:40:00,32.3,29.7,30.84,NNW,343,8.0,13.0,90,0.00,,,0.00,Weather View 32 v70,2013-01-02 11:40:00,
2013-01-02 05:45:00,32.3,29.7,30.84,NNW,343,5.0,13.0,90,0.00,,,0.00,Weather View 32 v70,2013-01-02 11:45:00,
2013-01-02 05:50:00,32.3,29.7,30.84,North,6,6.0,13.0,90,0.00,,,0.00,Weather View 32 v70,2013-01-02 11:50:00,
2013-01-02 05:55:00,32.3,29.7,30.84,NW,321,6.0,13.0,90,0.00,,,0.00,Weather View 32 v70,2013-01-02 11:55:00,
2013-01-02 06:00:00,32.3,29.7,30.84,North,6,5.0,13.0,90,0.00,,,0.00,Weather View 32 v70,2013-01-02 12:00:00,
2013-01-02 06:05:00,32.3,29.7,30.84,WNW,298,4.0,12.0,90,0.00,,,0.00,Weather View 32 v70,2013-01-02 12:05:00,
2013-01-02 06:10:00,32.3,29.7,30.84,NW,321,8.0,12.0,90,0.00,,,0.00,Weather View 32 v70,2013-01-02 12:10:00,
2013-01-02 06:15:00,32.3,29.7,30.84,NNW,343,4.0,12.0,90,0.00,,,0.00,Weather View 32 v70,2013-01-02 12:15:00,
2013-01-02 06:20:00,32.4,29.8,30.84,NNW,343,2.0,12.0,90,0.00,,,0.00,Weather View 32 v70,2013-01-02 12:20:00,
2013-01-02 06:25:00,32.4,29.8,30.84,North,6,2.0,12.0,90,0.00,,,0.00,Weather View 32 v70,2013-01-02 12:25:00,
2013-01-02 06:30:00,32.4,29.8,30.84,North,6,3.0,10.0,90,0.00,,,0.00,Weather View 32 v70,2013-01-02 12:30:00,
2013-01-02 06:35:00,32.4,29.8,30.84,NNW,343,3.0,10.0,90,0.00,,,0.00,Weather View 32 v70,2013-01-02 12:35:00,
2013-01-02 06:40:00,32.4,29.8,30.84,North,6,5.0,10.0,90,0.00,,,0.00,Weather View 32 v70,2013-01-02 12:40:00,
2013-01-02 06:45:00,32.4,29.5,30.84,North,6,4.0,10.0,89,0.00,,,0.00,Weather View 32 v70,2013-01-02 12:45:00,
2013-01-02 06:50:00,32.4,29.8,30.84,North,6,8.0,10.0,90,0.00,,,0.00,Weather View 32 v70,2013-01-02 12:50:00,
2013-01-02 06:55:00,32.4,29.5,30.84,North,6,6.0,8.0,89,0.00,,,0.00,Weather View 32 v70,2013-01-02 12:55:00,
2013-01-02 07:00:00,32.5,29.9,30.84,NNE,28,5.0,10.0,90,0.00,,,0.00,Weather View 32 v70,2013-01-02 13:00:00,
2013-01-02 07:05:00,32.5,29.9,30.84,NNW,343,6.0,10.0,90,0.00,,,0.00,Weather View 32 v70,2013-01-02 13:05:00,
2013-01-02 07:10:00,32.5,29.9,30.85,NNW,343,5.0,10.0,90,0.00,,,0.00,Weather View 32 v70,2013-01-02 13:10:00,
2013-01-02 07:15:00,32.5,29.9,30.85,North,6,7.0,11.0,90,0.00,,,0.00,Weather View 32 v70,2013-01-02 13:15:00,
2013-01-02 07:20:00,32.5,29.9,30.85,North,6,4.0,11.0,90,0.00,,,0.00,Weather View 32 v70,2013-01-02 13:20:00,
2013-01-02 07:25:00,32.6,30.0,30.85,North,6,3.0,11.0,90,0.00,,,0.00,Weather View 32 v70,2013-01-02 13:25:00,
2013-01-02 07:30:00,32.4,29.5,30.85,North,6,6.0,11.0,89,0.00,,,0.00,Weather View 32 v70,2013-01-02 13:30:00,
2013-01-02 07:35:00,32.4,29.5,30.85,NNW,343,6.0,11.0,89,0.00,,,0.00,Weather View 32 v70,2013-01-02 13:35:00,
2013-01-02 07:40:00,32.5,29.9,30.86,North,6,6.0,11.0,90,0.00,,,0.00,Weather View 32 v70,2013-01-02 13:40:00,
2013-01-02 07:45:00,32.7,30.1,30.86,North,6,4.0,11.0,90,0.00,,,0.00,Weather View 32 v70,2013-01-02 13:45:00,
2013-01-02 07:50:00,32.5,29.9,30.86,NW,321,7.0,11.0,90,0.00,,,0.00,Weather View 32 v70,2013-01-02 13:50:00,
2013-01-02 07:55:00,32.6,30.3,30.86,NNW,343,5.0,11.0,91,0.00,,,0.00,Weather View 32 v70,2013-01-02 13:55:00,
2013-01-02 08:00:00,32.6,30.3,30.86,WNW,298,6.0,11.0,91,0.00,,,0.00,Weather View 32 v70,2013-01-02 14:00:00,
2013-01-02 08:05:00,32.7,30.4,30.86,NNW,343,5.0,11.0,91,0.00,,,0.00,Weather View 32 v70,2013-01-02 14:05:00,
2013-01-02 08:10:00,32.7,30.1,30.86,NNW,343,4.0,11.0,90,0.00,,,0.00,Weather View 32 v70,2013-01-02 14:10:00,
2013-01-02 08:15:00,32.8,30.2,30.86,NNW,343,6.0,11.0,90,0.00,,,0.00,Weather View 32 v70,2013-01-02 14:15:00,
2013-01-02 08:20:00,32.7,30.1,30.86,NNW,343,6.0,11.0,90,0.00,,,0.00,Weather View 32 v70,2013-01-02 14:20:00,
2013-01-02 08:25:00,32.9,30.3,30.87,NNW,343,8.0,11.0,90,0.00,,,0.00,Weather View 32 v70,2013-01-02 14:25:00,
2013-01-02 08:30:00,33.0,30.4,30.87,NNW,343,6.0,11.0,90,0.00,,,0.00,Weather View 32 v70,2013-01-02 14:30:00,
2013-01-02 08:35:00,33.1,30.2,30.87,NE,51,3.0,10.0,89,0.00,,,0.00,Weather View 32 v70,2013-01-02 14:35:00,
2013-01-02 08:40:00,33.0,30.1,30.87,North,6,6.0,10.0,89,0.00,,,0.00,Weather View 32 v70,2013-01-02 14:40:00,
2013-01-02 08:45:00,33.0,30.1,30.87,North,6,7.0,10.0,89,0.00,,,0.00,Weather View 32 v70,2013-01-02 14:45:00,
2013-01-02 08:50:00,33.0,30.1,30.88,NW,321,8.0,10.0,89,0.00,,,0.00,Weather View 32 v70,2013-01-02 14:50:00,
2013-01-02 08:55:00,33.1,30.2,30.88,NW,321,6.0,10.0,89,0.00,,,0.00,Weather View 32 v70,2013-01-02 14:55:00,
2013-01-02 09:00:00,33.3,30.4,30.88,North,6,3.0,10.0,89,0.00,,,0.00,Weather View 32 v70,2013-01-02 15:00:00,
2013-01-02 09:06:00,33.3,30.4,30.89,NNW,343,5.0,10.0,89,0.00,,,0.00,Weather View 32 v70,2013-01-02 15:06:00,
2013-01-02 09:11:00,33.2,30.3,30.89,NNW,343,5.0,10.0,89,0.00,,,0.00,Weather View 32 v70,2013-01-02 15:11:00,
2013-01-02 09:16:00,33.2,30.0,30.89,NNW,343,6.0,10.0,88,0.00,,,0.00,Weather View 32 v70,2013-01-02 15:16:00,
2013-01-02 09:21:00,33.3,30.4,30.89,NW,321,5.0,10.0,89,0.00,,,0.00,Weather View 32 v70,2013-01-02 15:21:00,
2013-01-02 09:26:00,33.2,30.3,30.89,NNW,343,5.0,10.0,89,0.00,,,0.00,Weather View 32 v70,2013-01-02 15:26:00,
2013-01-02 09:31:00,33.5,30.6,30.89,North,6,6.0,10.0,89,0.00,,,0.00,Weather View 32 v70,2013-01-02 15:31:00,
2013-01-02 09:36:00,33.6,30.4,30.89,North,6,2.0,10.0,88,0.00,,,0.00,Weather View 32 v70,2013-01-02 15:36:00,
2013-01-02 09:41:00,33.7,30.8,30.89,NW,321,5.0,10.0,89,0.00,,,0.00,Weather View 32 v70,2013-01-02 15:41:00,
2013-01-02 09:46:00,33.8,30.3,30.89,NE,51,3.0,10.0,87,0.00,,,0.00,Weather View 32 v70,2013-01-02 15:46:00,
2013-01-02 09:51:00,33.7,30.2,30.89,North,6,5.0,10.0,87,0.00,,,0.00,Weather View 32 v70,2013-01-02 15:51:00,
2013-01-02 09:56:00,33.8,30.3,30.89,North,6,5.0,10.0,87,0.00,,,0.00,Weather View 32 v70,2013-01-02 15:56:00,
2013-01-02 10:01:00,33.9,30.4,30.89,NW,321,5.0,10.0,87,0.00,,,0.00,Weather View 32 v70,2013-01-02 16:01:00,
2013-01-02 10:06:00,34.0,30.0,30.89,North,6,5.0,10.0,85,0.00,,,0.00,Weather View 32 v70,2013-01-02 16:06:00,
2013-01-02 10:11:00,34.0,30.3,30.89,North,6,6.0,10.0,86,0.00,,,0.00,Weather View 32 v70,2013-01-02 16:11:00,
2013-01-02 10:16:00,34.1,30.4,30.90,NW,321,5.0,10.0,86,0.00,,,0.00,Weather View 32 v70,2013-01-02 16:16:00,
2013-01-02 10:21:00,33.9,29.9,30.90,NNW,343,5.0,8.0,85,0.00,,,0.00,Weather View 32 v70,2013-01-02 16:21:00,
2013-01-02 10:26:00,34.0,30.3,30.90,NNW,343,3.0,8.0,86,0.00,,,0.00,Weather View 32 v70,2013-01-02 16:26:00,
2013-01-02 10:31:00,34.0,30.0,30.89,WNW,298,3.0,8.0,85,0.00,,,0.00,Weather View 32 v70,2013-01-02 16:31:00,
2013-01-02 10:36:00,34.2,29.9,30.89,WNW,298,6.0,9.0,84,0.00,,,0.00,Weather View 32 v70,2013-01-02 16:36:00,
2013-01-02 10:41:00,34.2,29.6,30.90,NNW,343,6.0,9.0,83,0.00,,,0.00,Weather View 32 v70,2013-01-02 16:41:00,
2013-01-02 10:46:00,34.4,30.1,30.90,NW,321,8.0,9.0,84,0.00,,,0.00,Weather View 32 v70,2013-01-02 16:46:00,
2013-01-02 10:51:00,34.6,30.3,30.90,West,276,5.0,10.0,84,0.00,,,0.00,Weather View 32 v70,2013-01-02 16:51:00,
2013-01-02 10:56:00,34.4,29.8,30.90,WNW,298,7.0,11.0,83,0.00,,,0.00,Weather View 32 v70,2013-01-02 16:56:00,
2013-01-02 11:01:00,34.6,30.0,30.90,NW,321,4.0,11.0,83,0.00,,,0.00,Weather View 32 v70,2013-01-02 17:01:00,
2013-01-02 11:06:00,34.5,29.9,30.90,WNW,298,5.0,11.0,83,0.00,,,0.00,Weather View 32 v70,2013-01-02 17:06:00,
2013-01-02 11:11:00,34.6,30.0,30.89,West,276,7.0,11.0,83,0.00,,,0.00,Weather View 32 v70,2013-01-02 17:11:00,
2013-01-02 11:16:00,34.4,29.8,30.90,WNW,298,6.0,11.0,83,0.00,,,0.00,Weather View 32 v70,2013-01-02 17:16:00,
2013-01-02 11:21:00,34.6,29.7,30.90,WNW,298,6.0,11.0,82,0.00,,,0.00,Weather View 32 v70,2013-01-02 17:21:00,
2013-01-02 11:26:00,35.0,30.1,30.89,WNW,298,8.0,12.0,82,0.00,,,0.00,Weather View 32 v70,2013-01-02 17:26:00,
2013-01-02 11:31:00,34.8,29.9,30.89,West,276,9.0,12.0,82,0.00,,,0.00,Weather View 32 v70,2013-01-02 17:31:00,
2013-01-02 11:36:00,34.7,29.5,30.89,NW,321,8.0,12.0,81,0.00,,,0.00,Weather View 32 v70,2013-01-02 17:36:00,
2013-01-02 11:41:00,35.0,30.1,30.88,WNW,298,7.0,12.0,82,0.00,,,0.00,Weather View 32 v70,2013-01-02 17:41:00,
2013-01-02 11:46:00,35.4,30.7,30.88,WNW,298,8.0,12.0,83,0.00,,,0.00,Weather View 32 v70,2013-01-02 17:46:00,
2013-01-02 11:51:00,35.4,29.8,30.88,NW,321,5.0,12.0,80,0.00,,,0.00,Weather View 32 v70,2013-01-02 17:51:00,
2013-01-02 11:56:00,35.0,29.5,30.88,NW,321,6.0,12.0,80,0.00,,,0.00,Weather View 32 v70,2013-01-02 17:56:00,
2013-01-02 12:01:00,35.1,29.9,30.87,WNW,298,8.0,12.0,81,0.00,,,0.00,Weather View 32 v70,2013-01-02 18:01:00,
2013-01-02 12:06:00,35.5,30.2,30.87,NNW,343,5.0,12.0,81,0.00,,,0.00,Weather View 32 v70,2013-01-02 18:06:00,
2013-01-02 12:11:00,35.8,29.9,30.86,NW,321,7.0,12.0,79,0.00,,,0.00,Weather View 32 v70,2013-01-02 18:11:00,
2013-01-02 12:16:00,35.7,29.5,30.86,WNW,298,9.0,14.0,78,0.00,,,0.00,Weather View 32 v70,2013-01-02 18:16:00,
2013-01-02 12:21:00,35.9,29.7,30.86,NNW,343,8.0,14.0,78,0.00,,,0.00,Weather View 32 v70,2013-01-02 18:21:00,
2013-01-02 12:26:00,35.9,29.7,30.86,NW,321,8.0,14.0,78,0.00,,,0.00,Weather View 32 v70,2013-01-02 18:26:00,
2013-01-02 12:31:00,36.1,29.9,30.86,WNW,298,6.0,14.0,78,0.00,,,0.00,Weather View 32 v70,2013-01-02 18:31:00,
2013-01-02 12:36:00,35.8,29.3,30.85,NW,321,8.0,14.0,77,0.00,,,0.00,Weather View 32 v70,2013-01-02 18:36:00,
2013-01-02 12:41:00,35.8,29.3,30.85,NW,321,10.0,14.0,77,0.00,,,0.00,Weather View 32 v70,2013-01-02 18:41:00,
2013-01-02 12:47:00,35.9,29.4,30.85,WNW,298,8.0,14.0,77,0.00,,,0.00,Weather View 32 v70,2013-01-02 18:47:00,
2013-01-02 12:51:00,36.0,29.5,30.85,NW,321,8.0,14.0,77,0.00,,,0.00,Weather View 32 v70,2013-01-02 18:51:00,
2013-01-02 12:57:00,36.2,29.4,30.85,NNW,343,6.0,14.0,76,0.00,,,0.00,Weather View 32 v70,2013-01-02 18:57:00,
2013-01-02 13:02:00,36.3,29.5,30.84,WNW,298,5.0,14.0,76,0.00,,,0.00,Weather View 32 v70,2013-01-02 19:02:00,
2013-01-02 13:07:00,36.1,29.6,30.84,NNW,343,8.0,14.0,77,0.00,,,0.00,Weather View 32 v70,2013-01-02 19:07:00,
2013-01-02 13:12:00,36.1,29.3,30.84,North,6,6.0,14.0,76,0.00,,,0.00,Weather View 32 v70,2013-01-02 19:12:00,
2013-01-02 13:17:00,36.3,30.1,30.83,NNW,343,8.0,13.0,78,0.00,,,0.00,Weather View 32 v70,2013-01-02 19:17:00,
2013-01-02 13:22:00,36.2,29.0,30.83,NW,321,10.0,13.0,75,0.00,,,0.00,Weather View 32 v70,2013-01-02 19:22:00,
2013-01-02 13:27:00,36.3,29.5,30.83,NW,321,11.0,14.0,76,0.00,,,0.00,Weather View 32 v70,2013-01-02 19:27:00,
2013-01-02 13:32:00,36.2,29.4,30.83,West,276,11.0,14.0,76,0.00,,,0.00,Weather View 32 v70,2013-01-02 19:32:00,
2013-01-02 13:37:00,36.9,30.7,30.83,NW,321,11.0,14.0,78,0.00,,,0.00,Weather View 32 v70,2013-01-02 19:37:00,
2013-01-02 13:42:00,36.4,29.6,30.83,NW,321,10.0,14.0,76,0.00,,,0.00,Weather View 32 v70,2013-01-02 19:42:00,
2013-01-02 13:47:00,36.5,30.0,30.83,NW,321,7.0,14.0,77,0.00,,,0.00,Weather View 32 v70,2013-01-02 19:47:00,
2013-01-02 13:52:00,36.5,30.0,30.83,NW,321,6.0,14.0,77,0.00,,,0.00,Weather View 32 v70,2013-01-02 19:52:00,
2013-01-02 13:57:00,36.8,30.6,30.83,NW,321,8.0,14.0,78,0.00,,,0.00,Weather View 32 v70,2013-01-02 19:57:00,
2013-01-02 14:02:00,36.5,30.0,30.83,NW,321,10.0,14.0,77,0.00,,,0.00,Weather View 32 v70,2013-01-02 20:02:00,
2013-01-02 14:07:00,36.7,29.8,30.83,NNW,343,8.0,14.0,76,0.00,,,0.00,Weather View 32 v70,2013-01-02 20:07:00,
2013-01-02 14:12:00,37.2,31.0,30.83,NW,321,7.0,14.0,78,0.00,,,0.00,Weather View 32 v70,2013-01-02 20:12:00,
2013-01-02 14:17:00,37.3,31.1,30.83,NW,321,5.0,14.0,78,0.00,,,0.00,Weather View 32 v70,2013-01-02 20:17:00,
2013-01-02 14:22:00,36.7,29.8,30.82,NNW,343,6.0,14.0,76,0.00,,,0.00,Weather View 32 v70,2013-01-02 20:22:00,
2013-01-02 14:27:00,36.8,30.3,30.82,NW,321,10.0,13.0,77,0.00,,,0.00,Weather View 32 v70,2013-01-02 20:27:00,
2013-01-02 14:32:00,36.6,29.7,30.82,NW,321,10.0,14.0,76,0.00,,,0.00,Weather View 32 v70,2013-01-02 20:32:00,
2013-01-02 14:37:00,36.8,29.9,30.83,NW,321,10.0,14.0,76,0.01,,,0.00,Weather View 32 v70,2013-01-02 20:37:00,
2013-01-02 14:42:00,36.9,30.4,30.83,NNW,343,11.0,14.0,77,0.00,,,0.00,Weather View 32 v70,2013-01-02 20:42:00,
2013-01-02 14:47:00,36.6,29.7,30.82,NW,321,9.0,14.0,76,0.00,,,0.00,Weather View 32 v70,2013-01-02 20:47:00,
2013-01-02 14:52:00,36.8,29.9,30.82,WNW,298,8.0,14.0,76,0.00,,,0.00,Weather View 32 v70,2013-01-02 20:52:00,
2013-01-02 14:57:00,37.0,30.1,30.82,WNW,298,6.0,14.0,76,0.00,,,0.00,Weather View 32 v70,2013-01-02 20:57:00,
2013-01-02 15:02:00,37.1,30.2,30.82,NW,321,5.0,14.0,76,0.00,,,0.00,Weather View 32 v70,2013-01-02 21:02:00,
2013-01-02 15:07:00,37.3,30.7,30.82,NW,321,7.0,14.0,77,0.00,,,0.00,Weather View 32 v70,2013-01-02 21:07:00,
2013-01-02 15:12:00,37.2,30.0,30.82,NW,321,6.0,14.0,75,0.00,,,0.00,Weather View 32 v70,2013-01-02 21:12:00,
2013-01-02 15:17:00,37.2,30.0,30.82,WNW,298,7.0,14.0,75,0.00,,,0.00,Weather View 32 v70,2013-01-02 21:17:00,
2013-01-02 15:22:00,37.5,30.6,30.81,WNW,298,6.0,14.0,76,0.00,,,0.00,Weather View 32 v70,2013-01-02 21:22:00,
2013-01-02 15:27:00,37.0,29.8,30.81,NNW,343,6.0,14.0,75,0.00,,,0.00,Weather View 32 v70,2013-01-02 21:27:00,
2013-01-02 15:32:00,37.1,30.2,30.81,WNW,298,8.0,12.0,76,0.00,,,0.00,Weather View 32 v70,2013-01-02 21:32:00,
2013-01-02 15:37:00,37.2,30.0,30.81,NW,321,5.0,12.0,75,0.00,,,0.00,Weather View 32 v70,2013-01-02 21:37:00,
2013-01-02 15:42:00,37.3,30.1,30.82,NW,321,6.0,12.0,75,0.01,,,0.00,Weather View 32 v70,2013-01-02 21:42:00,
2013-01-02 15:47:00,37.6,30.7,30.82,NNW,343,4.0,11.0,76,0.00,,,0.00,Weather View 32 v70,2013-01-02 21:47:00,
2013-01-02 15:52:00,37.5,30.3,30.81,WNW,298,4.0,11.0,75,0.00,,,0.00,Weather View 32 v70,2013-01-02 21:52:00,
2013-01-02 15:57:00,37.3,29.8,30.81,NW,321,5.0,11.0,74,0.00,,,0.00,Weather View 32 v70,2013-01-02 21:57:00,
2013-01-02 16:02:00,37.2,29.7,30.82,NNW,343,7.0,11.0,74,0.00,,,0.00,Weather View 32 v70,2013-01-02 22:02:00,
2013-01-02 16:07:00,37.4,29.9,30.82,NW,321,6.0,11.0,74,0.00,,,0.00,Weather View 32 v70,2013-01-02 22:07:00,
2013-01-02 16:12:00,37.5,30.0,30.82,NW,321,3.0,11.0,74,0.00,,,0.00,Weather View 32 v70,2013-01-02 22:12:00,
2013-01-02 16:17:00,37.5,30.3,30.82,WNW,298,5.0,11.0,75,0.00,,,0.00,Weather View 32 v70,2013-01-02 22:17:00,
2013-01-02 16:22:00,37.4,30.2,30.82,WNW,298,6.0,11.0,75,0.00,,,0.00,Weather View 32 v70,2013-01-02 22:22:00,
2013-01-02 16:27:00,37.5,30.6,30.82,NW,321,6.0,11.0,76,0.00,,,0.00,Weather View 32 v70,2013-01-02 22:27:00,
2013-01-02 16:32:00,37.6,30.7,30.82,NNW,343,2.0,11.0,76,0.00,,,0.00,Weather View 32 v70,2013-01-02 22:32:00,
2013-01-02 16:37:00,37.5,30.3,30.82,NW,321,6.0,11.0,75,0.00,,,0.00,Weather View 32 v70,2013-01-02 22:37:00,
2013-01-02 16:42:00,37.6,30.4,30.82,NW,321,4.0,11.0,75,0.00,,,0.00,Weather View 32 v70,2013-01-02 22:42:00,
2013-01-02 16:47:00,37.5,30.3,30.82,NNW,343,4.0,10.0,75,0.00,,,0.00,Weather View 32 v70,2013-01-02 22:47:00,
2013-01-02 16:52:00,37.7,30.8,30.82,NNW,343,5.0,8.0,76,0.00,,,0.00,Weather View 32 v70,2013-01-02 22:52:00,
2013-01-02 16:57:00,37.7,30.5,30.82,NW,321,5.0,8.0,75,0.00,,,0.00,Weather View 32 v70,2013-01-02 22:57:00,
2013-01-02 17:02:00,37.7,30.5,30.82,North,6,2.0,8.0,75,0.00,,,0.00,Weather View 32 v70,2013-01-02 23:02:00,
2013-01-02 17:07:00,37.6,30.4,30.82,NW,321,5.0,8.0,75,0.00,,,0.00,Weather View 32 v70,2013-01-02 23:07:00,
2013-01-02 17:12:00,37.6,30.7,30.82,NW,321,5.0,8.0,76,0.01,,,0.00,Weather View 32 v70,2013-01-02 23:12:00,
2013-01-02 17:17:00,37.5,30.3,30.82,NW,321,6.0,8.0,75,0.00,,,0.00,Weather View 32 v70,2013-01-02 23:17:00,
2013-01-02 17:22:00,37.6,30.4,30.82,NNW,343,4.0,8.0,75,0.00,,,0.00,Weather View 32 v70,2013-01-02 23:22:00,
2013-01-02 17:27:00,37.6,30.7,30.82,NNW,343,3.0,8.0,76,0.00,,,0.00,Weather View 32 v70,2013-01-02 23:27:00,
2013-01-02 17:32:00,37.5,30.6,30.82,NW,321,2.0,8.0,76,0.00,,,0.00,Weather View 32 v70,2013-01-02 23:32:00,
2013-01-02 17:37:00,37.5,30.6,30.83,North,6,3.0,8.0,76,0.00,,,0.00,Weather View 32 v70,2013-01-02 23:37:00,
2013-01-02 17:42:00,37.5,30.6,30.82,NW,321,3.0,8.0,76,0.00,,,0.00,Weather View 32 v70,2013-01-02 23:42:00,
2013-01-02 17:47:00,37.5,30.6,30.82,North,6,1.0,8.0,76,0.00,,,0.00,Weather View 32 v70,2013-01-02 23:47:00,
2013-01-02 17:52:00,37.5,30.6,30.82,North,6,0.0,8.0,76,0.00,,,0.00,Weather View 32 v70,2013-01-02 23:52:00,
2013-01-02 17:57:00,37.3,30.7,30.82,North,6,1.0,8.0,77,0.00,,,0.00,Weather View 32 v70,2013-01-02 23:57:00,
2013-01-02 18:02:00,37.2,30.6,30.83,NNE,28,1.0,8.0,77,0.00,,,0.00,Weather View 32 v70,2013-01-03 00:02:00,
2013-01-02 18:07:00,37.1,30.6,30.82,North,6,2.0,8.0,77,0.00,,,0.00,Weather View 32 v70,2013-01-03 00:07:00,
2013-01-02 18:12:00,37.0,30.5,30.83,North,6,2.0,8.0,77,0.00,,,0.00,Weather View 32 v70,2013-01-03 00:12:00,
2013-01-02 18:17:00,37.0,30.8,30.83,NNE,28,0.0,8.0,78,0.00,,,0.00,Weather View 32 v70,2013-01-03 00:17:00,
2013-01-02 18:22:00,36.9,30.7,30.83,NNE,28,1.0,6.0,78,0.00,,,0.00,Weather View 32 v70,2013-01-03 00:22:00,
2013-01-02 18:27:00,36.9,30.7,30.83,NNE,28,1.0,5.0,78,0.00,,,0.00,Weather View 32 v70,2013-01-03 00:27:00,
2013-01-02 18:32:00,36.9,30.7,30.83,NNE,28,0.0,5.0,78,0.00,,,0.00,Weather View 32 v70,2013-01-03 00:32:00,
2013-01-02 18:37:00,36.9,30.7,30.84,NNE,28,0.0,5.0,78,0.00,,,0.00,Weather View 32 v70,2013-01-03 00:37:00,
2013-01-02 18:42:00,36.8,30.6,30.84,NNE,28,1.0,5.0,78,0.00,,,0.00,Weather View 32 v70,2013-01-03 00:42:00,
2013-01-02 18:47:00,36.7,30.5,30.84,North,6,0.0,3.0,78,0.00,,,0.00,Weather View 32 v70,2013-01-03 00:47:00,
2013-01-02 18:52:00,36.6,30.7,30.84,NNE,28,0.0,3.0,79,0.00,,,0.00,Weather View 32 v70,2013-01-03 00:52:00,
2013-01-02 18:57:00,36.4,30.8,30.84,North,6,1.0,3.0,80,0.00,,,0.00,Weather View 32 v70,2013-01-03 00:57:00,
2013-01-02 19:02:00,36.4,30.8,30.84,NNE,28,0.0,3.0,80,0.00,,,0.00,Weather View 32 v70,2013-01-03 01:02:00,
2013-01-02 19:07:00,36.3,30.7,30.85,North,6,0.0,3.0,80,0.00,,,0.00,Weather View 32 v70,2013-01-03 01:07:00,
2013-01-02 19:12:00,36.2,30.6,30.85,North,6,0.0,3.0,80,0.00,,,0.00,Weather View 32 v70,2013-01-03 01:12:00,
2013-01-02 19:17:00,36.1,30.5,30.85,North,6,0.0,2.0,80,0.00,,,0.00,Weather View 32 v70,2013-01-03 01:17:00,
2013-01-02 19:22:00,35.8,30.5,30.85,NNE,28,0.0,2.0,81,0.00,,,0.00,Weather View 32 v70,2013-01-03 01:22:00,
2013-01-02 19:27:00,35.3,30.0,30.86,NNE,28,0.0,2.0,81,0.00,,,0.00,Weather View 32 v70,2013-01-03 01:27:00,
2013-01-02 19:32:00,34.7,29.8,30.86,North,6,0.0,2.0,82,0.00,,,0.00,Weather View 32 v70,2013-01-03 01:32:00,
2013-01-02 19:37:00,34.5,29.9,30.86,NNE,28,0.0,2.0,83,0.00,,,0.00,Weather View 32 v70,2013-01-03 01:37:00,
2013-01-02 19:42:00,34.7,30.4,30.86,ENE,73,0.0,2.0,84,0.00,,,0.00,Weather View 32 v70,2013-01-03 01:42:00,
2013-01-02 19:47:00,35.0,30.7,30.86,NNE,28,0.0,2.0,84,0.00,,,0.00,Weather View 32 v70,2013-01-03 01:47:00,
2013-01-02 19:52:00,34.9,30.6,30.86,NNE,28,0.0,2.0,84,0.00,,,0.00,Weather View 32 v70,2013-01-03 01:52:00,
2013-01-02 19:57:00,34.8,30.5,30.86,NNE,28,0.0,2.0,84,0.00,,,0.00,Weather View 32 v70,2013-01-03 01:57:00,
2013-01-02 20:02:00,34.6,30.3,30.86,NNE,28,0.0,1.0,84,0.00,,,0.00,Weather View 32 v70,2013-01-03 02:02:00,
2013-01-02 20:07:00,34.3,30.0,30.86,NNE,28,0.0,1.0,84,0.00,,,0.00,Weather View 32 v70,2013-01-03 02:07:00,
2013-01-02 20:12:00,33.9,29.6,30.86,NNE,28,0.0,1.0,84,0.00,,,0.00,Weather View 32 v70,2013-01-03 02:12:00,
2013-01-02 20:17:00,33.4,29.4,30.86,NE,51,0.0,1.0,85,0.00,,,0.00,Weather View 32 v70,2013-01-03 02:17:00,
2013-01-02 20:22:00,33.4,29.7,30.87,NNE,28,0.0,1.0,86,0.00,,,0.00,Weather View 32 v70,2013-01-03 02:22:00,
2013-01-02 20:27:00,33.8,30.3,30.87,NE,51,0.0,1.0,87,0.00,,,0.00,Weather View 32 v70,2013-01-03 02:27:00,
2013-01-02 20:32:00,33.9,30.4,30.87,NE,51,0.0,1.0,87,0.00,,,0.00,Weather View 32 v70,2013-01-03 02:32:00,
2013-01-02 20:37:00,33.9,30.4,30.87,NNE,28,0.0,1.0,87,0.00,,,0.00,Weather View 32 v70,2013-01-03 02:37:00,
2013-01-02 20:42:00,33.7,30.2,30.87,NNE,28,0.0,1.0,87,0.00,,,0.00,Weather View 32 v70,2013-01-03 02:42:00,
2013-01-02 20:47:00,33.4,29.9,30.87,NNE,28,0.0,1.0,87,0.00,,,0.00,Weather View 32 v70,2013-01-03 02:47:00,
2013-01-02 20:52:00,33.2,30.0,30.87,NE,51,0.0,1.0,88,0.00,,,0.00,Weather View 32 v70,2013-01-03 02:52:00,
2013-01-02 20:57:00,33.1,29.9,30.87,ENE,73,0.0,1.0,88,0.00,,,0.00,Weather View 32 v70,2013-01-03 02:57:00,
2013-01-02 21:02:00,33.2,30.0,30.87,ENE,73,1.0,2.0,88,0.00,,,0.00,Weather View 32 v70,2013-01-03 03:02:00,
2013-01-02 21:07:00,33.4,30.5,30.86,NNE,28,0.0,2.0,89,0.00,,,0.00,Weather View 32 v70,2013-01-03 03:07:00,
2013-01-02 21:12:00,33.2,30.3,30.86,NE,51,0.0,2.0,89,0.00,,,0.00,Weather View 32 v70,2013-01-03 03:12:00,
2013-01-02 21:17:00,33.0,30.1,30.86,NNE,28,0.0,2.0,89,0.00,,,0.00,Weather View 32 v70,2013-01-03 03:17:00,
2013-01-02 21:22:00,32.8,29.9,30.87,NNE,28,0.0,2.0,89,0.00,,,0.00,Weather View 32 v70,2013-01-03 03:22:00,
2013-01-02 21:27:00,32.3,29.4,30.87,NNE,28,0.0,2.0,89,0.00,,,0.00,Weather View 32 v70,2013-01-03 03:27:00,
2013-01-02 21:32:00,31.7,28.8,30.87,ESE,118,1.0,2.0,89,0.00,,,0.00,Weather View 32 v70,2013-01-03 03:32:00,
2013-01-02 21:41:00,31.8,29.2,30.86,ENE,73,2.0,3.0,90,0.01,,,0.00,Weather View 32 v70,2013-01-03 03:41:00,
2013-01-02 22:10:00,30.2,28.4,30.88,NNE,28,0.0,3.0,93,0.00,,,0.00,Weather View 32 v70,2013-01-03 04:10:00,
2013-01-02 22:15:00,30.4,28.9,30.87,NNE,28,0.0,3.0,94,0.00,,,0.00,Weather View 32 v70,2013-01-03 04:15:00,
2013-01-02 22:20:00,30.5,29.0,30.87,NNE,28,0.0,3.0,94,0.00,,,0.00,Weather View 32 v70,2013-01-03 04:20:00,
2013-01-02 22:25:00,30.8,29.5,30.88,NNE,28,0.0,3.0,95,0.00,,,0.00,Weather View 32 v70,2013-01-03 04:25:00,
2013-01-02 22:30:00,30.9,29.6,30.88,NE,51,0.0,3.0,95,0.00,,,0.00,Weather View 32 v70,2013-01-03 04:30:00,
2013-01-02 22:35:00,31.0,29.7,30.88,NE,51,0.0,3.0,95,0.00,,,0.00,Weather View 32 v70,2013-01-03 04:35:00,
2013-01-02 22:41:00,30.8,29.3,30.88,NNE,28,0.0,3.0,94,0.00,,,0.00,Weather View 32 v70,2013-01-03 04:41:00,
2013-01-02 22:46:00,30.5,29.0,30.88,NNE,28,0.0,3.0,94,0.00,,,0.00,Weather View 32 v70,2013-01-03 04:46:00,
2013-01-02 22:51:00,29.9,28.4,30.88,NNE,28,0.0,2.0,94,0.01,,,0.00,Weather View 32 v70,2013-01-03 04:51:00,
2013-01-02 22:56:00,29.9,28.6,30.88,ENE,73,0.0,1.0,95,0.00,,,0.00,Weather View 32 v70,2013-01-03 04:56:00,
2013-01-02 23:02:00,29.9,28.6,30.88,South,186,0.0,1.0,95,0.00,,,0.00,Weather View 32 v70,2013-01-03 05:02:00,
2013-01-02 23:03:00,29.7,28.4,30.88,SSE,163,1.0,1.0,95,0.00,,,0.00,Weather View 32 v70,2013-01-03 05:03:00,
2013-01-02 23:08:00,29.8,28.5,30.89,North,6,0.0,1.0,95,0.00,,,0.00,Weather View 32 v70,2013-01-03 05:08:00,
2013-01-02 23:13:00,29.6,28.3,30.89,North,6,0.0,1.0,95,0.00,,,0.00,Weather View 32 v70,2013-01-03 05:13:00,
2013-01-02 23:18:00,29.3,28.0,30.88,NNE,28,0.0,1.0,95,0.00,,,0.00,Weather View 32 v70,2013-01-03 05:18:00,
2013-01-02 23:23:00,29.2,28.2,30.88,North,6,0.0,1.0,96,0.00,,,0.00,Weather View 32 v70,2013-01-03 05:23:00,
2013-01-02 23:28:00,29.4,28.7,30.88,North,6,0.0,1.0,97,0.00,,,0.00,Weather View 32 v70,2013-01-03 05:28:00,
2013-01-02 23:33:00,29.7,29.2,30.88,North,6,0.0,1.0,98,0.00,,,0.00,Weather View 32 v70,2013-01-03 05:33:00,
2013-01-02 23:38:00,29.5,29.0,30.88,NNE,28,0.0,1.0,98,0.00,,,0.00,Weather View 32 v70,2013-01-03 05:38:00,
2013-01-02 23:43:00,29.3,28.6,30.89,NNE,28,0.0,1.0,97,0.00,,,0.00,Weather View 32 v70,2013-01-03 05:43:00,
2013-01-02 23:48:00,29.3,28.8,30.88,NNE,28,0.0,1.0,98,0.00,,,0.00,Weather View 32 v70,2013-01-03 05:48:00,
2013-01-02 23:53:00,29.6,29.1,30.88,North,6,0.0,1.0,98,0.00,,,0.00,Weather View 32 v70,2013-01-03 05:53:00,
2013-01-02 23:58:00,29.7,29.2,30.88,North,6,0.0,1.0,98,0.00,,,0.00,Weather View 32 v70,2013-01-03 05:58:00,